Time;durP1;ratioP1;P1;durP2;ratioP2;P2;SDS_P1;SDS_P2;PMS_P1;PMS_P2;Temp;Humidity;BMP_temperature;BMP_pressure;BME280_temperature;BME280_humidity;BME280_pressure;Samples;Min_cycle;Max_cycle;Signal;HPM_P1;HPM_P2
2021/06/10 00:01:06;;;;;;;13.02;11.80;;;18.20;99.90;;;;;;4997516;28;20022;-74
2021/06/10 00:03:34;;;;;;;12.27;10.98;;;18.20;99.90;;;;;;4991486;28;20103;-74
2021/06/10 00:06:00;;;;;;;11.85;10.48;;;18.20;99.90;;;;;;4989452;28;20494;-74
2021/06/10 00:08:28;;;;;;;13.00;10.55;;;18.10;99.90;;;;;;4992721;28;20031;-74
2021/06/10 00:10:58;;;;;;;12.23;10.88;;;18.10;99.90;;;;;;4994978;28;20026;-74
2021/06/10 00:13:24;;;;;;;12.90;10.82;;;18.00;99.90;;;;;;4990668;28;20027;-74
2021/06/10 00:15:49;;;;;;;10.40;9.07;;;18.00;99.90;;;;;;4995551;28;20050;-74
2021/06/10 00:18:15;;;;;;;10.98;9.20;;;18.00;99.90;;;;;;4994467;28;20394;-74
2021/06/10 00:20:43;;;;;;;12.25;9.23;;;18.00;99.90;;;;;;4993075;28;20053;-75
2021/06/10 00:23:11;;;;;;;11.10;9.80;;;17.90;99.90;;;;;;4977752;28;20042;-75
2021/06/10 00:25:37;;;;;;;12.50;10.70;;;17.90;99.90;;;;;;4987358;28;20064;-74
2021/06/10 00:28:06;;;;;;;11.20;10.00;;;17.80;99.90;;;;;;4992891;28;20068;-74
2021/06/10 00:30:33;;;;;;;11.32;10.13;;;17.70;99.90;;;;;;4993636;28;20028;-72
2021/06/10 00:32:58;;;;;;;10.60;9.40;;;17.70;99.90;;;;;;4979146;28;20117;-74
2021/06/10 00:35:26;;;;;;;12.30;10.45;;;17.70;99.90;;;;;;4996076;28;20663;-72
2021/06/10 00:37:56;;;;;;;10.80;9.70;;;17.60;99.90;;;;;;4972459;28;20035;-72
2021/06/10 00:40:22;;;;;;;10.00;8.98;;;17.50;99.90;;;;;;4978752;28;20445;-74
2021/06/10 00:42:48;;;;;;;12.30;9.98;;;17.50;99.90;;;;;;4975642;28;20041;-74
2021/06/10 00:45:17;;;;;;;8.65;7.75;;;17.50;99.90;;;;;;4976154;28;20027;-74
2021/06/10 00:47:45;;;;;;;10.73;7.72;;;17.50;99.90;;;;;;4991787;28;20092;-74
2021/06/10 00:50:16;;;;;;;9.43;7.88;;;17.40;99.90;;;;;;4994458;28;20459;-74
2021/06/10 00:52:44;;;;;;;11.32;7.80;;;17.40;99.90;;;;;;4990224;28;20086;-74
2021/06/10 00:55:10;;;;;;;8.90;7.97;;;17.40;99.90;;;;;;4992838;28;20030;-74
2021/06/10 00:57:35;;;;;;;11.13;9.15;;;17.30;99.90;;;;;;4991942;28;20109;-74
2021/06/10 01:00:04;;;;;;;12.25;8.60;;;17.30;99.90;;;;;;4976577;28;20080;-74
2021/06/10 01:02:32;;;;;;;9.70;8.50;;;17.30;99.90;;;;;;4976848;28;20125;-74
2021/06/10 01:05:00;;;;;;;10.10;7.88;;;17.20;99.90;;;;;;4986630;28;20065;-74
2021/06/10 01:07:32;;;;;;;8.48;7.53;;;17.20;99.90;;;;;;4978098;28;20027;-74
2021/06/10 01:10:01;;;;;;;8.43;7.28;;;17.20;99.90;;;;;;4975812;28;20045;-74
2021/06/10 01:12:33;;;;;;;8.70;7.25;;;17.20;99.90;;;;;;4987921;28;20030;-74
2021/06/10 01:15:08;;;;;;;9.65;7.80;;;17.20;99.90;;;;;;4975314;28;20065;-74
2021/06/10 01:17:42;;;;;;;8.52;7.18;;;17.20;99.90;;;;;;4986581;28;20061;-74
2021/06/10 01:20:16;;;;;;;9.60;7.60;;;17.10;99.90;;;;;;4985423;28;20465;-74
2021/06/10 01:22:57;;;;;;;11.45;8.05;;;17.10;99.90;;;;;;4986418;28;20065;-74
2021/06/10 01:25:46;;;;;;;7.70;6.90;;;17.10;99.90;;;;;;4989617;28;20586;-74
2021/06/10 01:28:44;;;;;;;8.25;7.40;;;17.10;99.90;;;;;;4974832;28;20049;-74
2021/06/10 01:31:14;;;;;;;9.60;7.60;;;17.00;99.90;;;;;;4960573;28;20042;-74
2021/06/10 01:33:45;;;;;;;10.75;7.80;;;17.00;99.90;;;;;;4986063;28;20039;-74
2021/06/10 01:36:14;;;;;;;8.55;7.65;;;17.00;99.90;;;;;;4995802;28;20061;-74
2021/06/10 01:38:40;;;;;;;9.68;8.13;;;17.00;99.90;;;;;;4979685;28;20025;-72
2021/06/10 01:41:06;;;;;;;10.90;7.88;;;16.90;99.90;;;;;;4989778;28;20404;-72
2021/06/10 01:43:34;;;;;;;11.45;8.40;;;16.90;99.90;;;;;;4975069;28;20096;-72
2021/06/10 01:46:03;;;;;;;9.07;7.60;;;16.90;99.90;;;;;;4963205;28;20309;-72
2021/06/10 01:48:34;;;;;;;9.50;8.50;;;16.90;99.90;;;;;;4976514;28;20069;-72
2021/06/10 01:51:05;;;;;;;12.48;9.00;;;16.90;99.90;;;;;;4987184;28;20423;-72
2021/06/10 01:53:33;;;;;;;9.82;7.85;;;16.80;99.90;;;;;;4988654;28;20031;-72
2021/06/10 01:56:02;;;;;;;10.95;8.68;;;16.90;99.90;;;;;;4971517;28;20655;-72
2021/06/10 01:58:28;;;;;;;9.27;8.23;;;16.80;99.90;;;;;;4978037;28;20546;-72
2021/06/10 02:00:57;;;;;;;10.35;8.43;;;16.80;99.90;;;;;;4990414;28;20030;-72
2021/06/10 02:03:24;;;;;;;10.25;8.35;;;16.80;99.90;;;;;;4975036;28;20072;-72
2021/06/10 02:05:50;;;;;;;9.68;8.07;;;16.80;99.90;;;;;;4995460;28;20061;-72
2021/06/10 02:08:17;;;;;;;10.45;8.43;;;16.80;99.90;;;;;;4988875;28;20053;-72
2021/06/10 02:10:51;;;;;;;10.40;8.52;;;16.80;99.90;;;;;;4973655;28;20452;-72
2021/06/10 02:13:21;;;;;;;10.02;8.10;;;16.70;99.90;;;;;;4989780;28;20045;-72
2021/06/10 02:15:46;;;;;;;10.88;8.40;;;16.70;99.90;;;;;;4978185;28;20066;-74
2021/06/10 02:18:16;;;;;;;9.43;8.13;;;16.70;99.90;;;;;;4989402;28;20042;-73
2021/06/10 02:20:43;;;;;;;10.18;9.18;;;16.70;99.90;;;;;;4990052;28;20084;-74
2021/06/10 02:23:09;;;;;;;10.27;9.10;;;16.70;99.90;;;;;;4989020;28;20089;-74
2021/06/10 02:25:39;;;;;;;10.38;9.27;;;16.70;99.90;;;;;;4989610;28;20053;-73
2021/06/10 02:28:07;;;;;;;12.52;8.85;;;16.70;99.90;;;;;;4993561;28;20126;-74
2021/06/10 02:30:33;;;;;;;10.88;9.15;;;16.60;99.90;;;;;;4989045;28;20049;-73
2021/06/10 02:32:59;;;;;;;10.55;9.23;;;16.60;99.90;;;;;;4981881;28;20038;-73
2021/06/10 02:35:25;;;;;;;11.15;9.45;;;16.60;99.90;;;;;;4978707;28;20045;-73
2021/06/10 02:37:53;;;;;;;11.02;9.93;;;16.60;99.90;;;;;;4995553;28;20039;-73
2021/06/10 02:40:44;;;;;;;11.25;9.73;;;16.60;99.90;;;;;;4998395;28;20031;-73
2021/06/10 02:43:10;;;;;;;11.27;9.38;;;16.60;99.90;;;;;;4998836;28;20041;-73
2021/06/10 02:45:36;;;;;;;10.40;9.38;;;16.50;99.90;;;;;;4989357;28;20077;-73
2021/06/10 02:48:01;;;;;;;11.57;9.80;;;16.60;99.90;;;;;;4988233;28;20039;-73
2021/06/10 02:50:27;;;;;;;10.35;9.23;;;16.50;99.90;;;;;;4991638;28;20074;-73
2021/06/10 02:52:53;;;;;;;11.95;9.43;;;16.50;99.90;;;;;;5007654;28;20044;-73
2021/06/10 02:55:21;;;;;;;11.90;10.05;;;16.50;99.90;;;;;;4995713;28;20026;-73
2021/06/10 02:57:54;;;;;;;12.57;10.50;;;16.50;99.90;;;;;;4992000;28;20096;-73
2021/06/10 03:00:24;;;;;;;13.60;11.15;;;16.50;99.90;;;;;;4984480;28;20382;-73
2021/06/10 03:02:49;;;;;;;12.75;11.13;;;16.40;99.90;;;;;;4992509;28;20457;-73
2021/06/10 03:05:15;;;;;;;12.38;11.10;;;16.50;99.90;;;;;;4973474;28;20045;-73
2021/06/10 03:07:41;;;;;;;12.38;9.95;;;16.40;99.90;;;;;;4978380;28;20034;-73
2021/06/10 03:10:08;;;;;;;12.43;10.70;;;16.50;99.90;;;;;;4972295;28;20117;-73
2021/06/10 03:12:34;;;;;;;11.68;10.40;;;16.50;99.90;;;;;;4965240;28;20628;-73
2021/06/10 03:15:06;;;;;;;11.98;10.77;;;16.50;99.90;;;;;;4982143;28;20033;-73
2021/06/10 03:17:36;;;;;;;11.98;10.07;;;16.50;99.90;;;;;;4973137;28;20034;-73
2021/06/10 03:20:04;;;;;;;12.25;10.27;;;16.50;99.90;;;;;;4981177;28;20110;-73
2021/06/10 03:22:30;;;;;;;13.38;11.25;;;16.50;99.90;;;;;;4988648;28;20057;-73
2021/06/10 03:24:58;;;;;;;12.65;11.13;;;16.40;99.90;;;;;;4988287;28;20571;-73
2021/06/10 03:27:26;;;;;;;12.65;10.35;;;16.40;99.90;;;;;;4990198;28;20037;-73
2021/06/10 03:29:57;;;;;;;12.85;10.63;;;16.50;99.90;;;;;;4990174;28;20065;-73
2021/06/10 03:32:25;;;;;;;13.13;11.52;;;16.40;99.90;;;;;;4984234;28;20032;-73
2021/06/10 03:34:50;;;;;;;12.90;11.20;;;16.40;99.90;;;;;;4988986;28;20035;-73
2021/06/10 03:37:16;;;;;;;14.15;11.82;;;16.40;99.90;;;;;;4960520;28;20423;-73
2021/06/10 03:39:44;;;;;;;14.60;12.23;;;16.40;99.90;;;;;;4994197;28;20038;-73
2021/06/10 03:42:10;;;;;;;15.23;12.55;;;16.40;99.90;;;;;;4977520;28;20041;-73
2021/06/10 03:44:36;;;;;;;13.70;12.30;;;16.40;99.90;;;;;;4971281;28;20023;-73
2021/06/10 03:47:04;;;;;;;13.20;11.80;;;16.40;99.90;;;;;;4974298;28;20125;-73
2021/06/10 03:49:32;;;;;;;16.33;12.75;;;16.40;99.90;;;;;;4971867;28;20026;-73
2021/06/10 03:51:58;;;;;;;13.85;12.45;;;16.40;99.90;;;;;;4971216;28;20720;-73
2021/06/10 03:54:24;;;;;;;13.52;12.20;;;16.40;99.90;;;;;;4976776;28;20046;-73
2021/06/10 03:56:50;;;;;;;12.75;11.45;;;16.50;99.90;;;;;;4976473;28;20027;-73
2021/06/10 03:59:18;;;;;;;13.95;12.15;;;16.50;99.90;;;;;;4979233;28;20022;-73
2021/06/10 04:01:43;;;;;;;13.65;12.25;;;16.50;99.90;;;;;;4988647;28;20030;-73
2021/06/10 04:04:09;;;;;;;13.55;12.25;;;16.50;99.90;;;;;;4983917;28;20052;-73
2021/06/10 04:06:39;;;;;;;12.88;11.57;;;16.50;99.90;;;;;;4994662;28;20031;-74
2021/06/10 04:09:07;;;;;;;12.77;11.45;;;16.50;99.90;;;;;;4993218;28;20065;-73
2021/06/10 04:11:32;;;;;;;12.50;11.25;;;16.60;99.90;;;;;;4990928;28;20029;-73
2021/06/10 04:13:59;;;;;;;12.45;11.10;;;16.60;99.90;;;;;;4992844;28;20030;-73
2021/06/10 04:16:27;;;;;;;12.25;10.73;;;16.60;99.90;;;;;;4992179;28;20084;-74
2021/06/10 04:18:55;;;;;;;11.95;10.75;;;16.70;99.90;;;;;;4997052;28;20737;-73
2021/06/10 04:21:21;;;;;;;12.85;11.40;;;16.80;99.90;;;;;;4996238;28;20018;-73
2021/06/10 04:23:49;;;;;;;12.48;11.18;;;16.80;99.90;;;;;;4992252;28;20042;-73
2021/06/10 04:26:15;;;;;;;11.85;10.70;;;16.90;99.90;;;;;;4996392;28;20109;-74
2021/06/10 04:28:40;;;;;;;12.10;10.90;;;16.90;99.90;;;;;;4988759;28;20045;-73
2021/06/10 04:31:06;;;;;;;12.55;11.25;;;17.00;99.90;;;;;;4986127;28;20480;-73
2021/06/10 04:33:32;;;;;;;12.40;11.05;;;17.10;99.90;;;;;;4977312;28;20162;-73
2021/06/10 04:35:57;;;;;;;12.95;11.65;;;17.20;99.90;;;;;;4971887;28;20448;-73
2021/06/10 04:38:23;;;;;;;12.43;10.70;;;17.20;99.90;;;;;;4985411;28;20030;-73
2021/06/10 04:40:51;;;;;;;11.50;10.40;;;17.30;99.90;;;;;;4989893;28;20618;-74
2021/06/10 04:43:21;;;;;;;12.50;11.20;;;17.30;99.90;;;;;;4991292;28;20035;-73
2021/06/10 04:45:47;;;;;;;11.75;10.65;;;17.40;99.90;;;;;;4989938;28;20109;-73
2021/06/10 04:48:12;;;;;;;11.63;10.43;;;17.40;99.90;;;;;;4994042;28;20121;-73
2021/06/10 04:50:38;;;;;;;11.45;10.35;;;17.50;99.90;;;;;;4987985;28;20026;-73
2021/06/10 04:53:04;;;;;;;12.15;10.55;;;17.60;99.90;;;;;;4995301;28;20022;-73
2021/06/10 04:55:30;;;;;;;12.27;11.00;;;17.60;99.90;;;;;;4993161;28;20440;-73
2021/06/10 04:57:56;;;;;;;12.10;10.80;;;17.60;99.90;;;;;;4994673;28;20057;-73
2021/06/10 05:00:24;;;;;;;11.20;9.90;;;17.70;99.90;;;;;;4992136;28;20471;-73
2021/06/10 05:02:50;;;;;;;12.13;10.80;;;17.70;99.90;;;;;;4995127;28;20721;-73
2021/06/10 05:05:18;;;;;;;12.48;10.98;;;17.70;99.90;;;;;;4990915;28;20121;-73
2021/06/10 05:07:44;;;;;;;12.82;11.60;;;17.80;99.90;;;;;;4995938;28;20051;-73
2021/06/10 05:10:10;;;;;;;11.85;10.75;;;17.80;99.90;;;;;;4988669;28;20371;-73
2021/06/10 05:12:40;;;;;;;11.88;10.50;;;17.90;99.90;;;;;;4988542;28;20660;-73
2021/06/10 05:15:06;;;;;;;12.95;11.48;;;17.90;99.90;;;;;;4990915;28;20056;-73
2021/06/10 05:17:34;;;;;;;12.63;11.32;;;18.00;99.90;;;;;;4992389;28;20037;-73
2021/06/10 05:20:00;;;;;;;11.68;10.55;;;18.00;99.90;;;;;;4990275;28;20100;-73
2021/06/10 05:22:28;;;;;;;13.52;12.23;;;18.10;99.90;;;;;;4990717;28;20240;-73
2021/06/10 05:24:56;;;;;;;11.13;10.02;;;18.10;99.90;;;;;;4991027;28;20025;-73
2021/06/10 05:27:24;;;;;;;12.05;10.95;;;18.20;99.90;;;;;;4988148;28;20030;-73
2021/06/10 05:29:54;;;;;;;12.93;11.52;;;18.20;99.90;;;;;;4993911;28;20644;-73
2021/06/10 05:32:22;;;;;;;12.38;11.10;;;18.30;99.90;;;;;;4990301;28;20034;-73
2021/06/10 05:34:52;;;;;;;13.00;11.65;;;18.30;99.90;;;;;;4991457;28;20582;-74
2021/06/10 05:37:20;;;;;;;13.75;12.35;;;18.40;99.90;;;;;;4990802;28;20031;-73
2021/06/10 05:39:46;;;;;;;12.13;10.93;;;18.40;99.90;;;;;;4996154;28;20019;-73
2021/06/10 05:42:14;;;;;;;12.88;11.57;;;18.50;99.90;;;;;;4974679;28;20115;-73
2021/06/10 05:44:39;;;;;;;11.95;10.77;;;18.50;99.90;;;;;;4991191;28;20033;-73
2021/06/10 05:47:07;;;;;;;11.15;10.05;;;18.60;99.90;;;;;;4987122;28;20064;-73
2021/06/10 05:49:35;;;;;;;12.35;11.05;;;18.60;99.90;;;;;;4994737;28;20117;-73
2021/06/10 05:52:04;;;;;;;11.93;10.73;;;18.60;99.90;;;;;;4990087;28;20115;-73
2021/06/10 05:54:32;;;;;;;11.70;10.55;;;18.70;99.90;;;;;;4995261;28;20041;-73
2021/06/10 05:57:00;;;;;;;11.18;10.00;;;18.70;99.90;;;;;;4987628;28;20029;-72
2021/06/10 05:59:26;;;;;;;11.25;9.63;;;18.70;99.90;;;;;;4990890;28;20581;-73
2021/06/10 06:01:52;;;;;;;12.57;10.57;;;18.80;99.90;;;;;;4993294;28;20092;-72
2021/06/10 06:04:18;;;;;;;11.60;10.50;;;18.80;99.90;;;;;;4991355;28;20106;-73
2021/06/10 06:06:44;;;;;;;12.10;10.90;;;18.80;99.90;;;;;;4995175;28;20037;-72
2021/06/10 06:09:15;;;;;;;12.55;11.35;;;18.80;99.90;;;;;;4993948;28;20034;-73
2021/06/10 06:11:41;;;;;;;12.88;11.35;;;18.90;99.90;;;;;;4984773;28;20044;-74
2021/06/10 06:14:07;;;;;;;11.98;10.77;;;19.00;99.90;;;;;;4963316;28;20491;-74
2021/06/10 06:16:35;;;;;;;12.02;10.70;;;19.00;99.90;;;;;;4994242;28;20065;-73
2021/06/10 06:19:04;;;;;;;11.75;10.65;;;19.00;99.90;;;;;;4991719;28;20038;-74
2021/06/10 06:21:30;;;;;;;12.23;11.02;;;19.10;99.90;;;;;;4972685;28;20027;-74
2021/06/10 06:23:57;;;;;;;12.23;10.93;;;19.10;99.90;;;;;;4990457;28;20464;-74
2021/06/10 06:26:25;;;;;;;11.55;10.45;;;19.10;99.90;;;;;;4991199;28;20053;-75
2021/06/10 06:28:53;;;;;;;11.95;10.82;;;19.20;99.90;;;;;;4982565;28;20054;-76
2021/06/10 06:31:21;;;;;;;11.70;10.52;;;19.20;99.90;;;;;;4986409;28;20037;-75
2021/06/10 06:33:47;;;;;;;13.23;10.52;;;19.20;99.90;;;;;;4986683;28;20086;-75
2021/06/10 06:36:13;;;;;;;12.40;10.82;;;19.20;99.90;;;;;;4982520;28;20137;-80
2021/06/10 06:38:39;;;;;;;11.85;10.63;;;19.30;99.90;;;;;;4994453;28;20087;-78
2021/06/10 06:41:05;;;;;;;14.70;13.23;;;19.40;99.90;;;;;;4994848;28;20113;-78
2021/06/10 06:43:33;;;;;;;14.80;12.93;;;19.40;99.90;;;;;;4985271;28;20039;-76
2021/06/10 06:46:03;;;;;;;12.27;10.98;;;19.40;99.90;;;;;;4982384;28;20113;-76
2021/06/10 06:48:31;;;;;;;12.45;11.10;;;19.50;99.90;;;;;;4984129;28;20041;-75
2021/06/10 06:50:56;;;;;;;12.57;10.43;;;19.50;99.90;;;;;;4987835;28;20029;-76
2021/06/10 06:53:22;;;;;;;11.88;10.65;;;19.60;99.90;;;;;;4964193;28;20033;-76
2021/06/10 06:55:48;;;;;;;11.45;10.25;;;19.60;99.90;;;;;;4994298;28;20041;-77
2021/06/10 06:58:13;;;;;;;12.00;10.80;;;19.70;99.90;;;;;;4984133;28;20034;-76
2021/06/10 07:00:39;;;;;;;13.30;11.98;;;19.80;99.90;;;;;;4987081;28;20676;-75
2021/06/10 07:03:07;;;;;;;12.88;10.82;;;19.80;99.90;;;;;;4989044;28;20495;-75
2021/06/10 07:05:35;;;;;;;11.60;10.40;;;19.80;99.90;;;;;;4988377;28;20034;-76
2021/06/10 07:08:03;;;;;;;11.85;10.65;;;19.90;99.90;;;;;;4998678;28;20180;-75
2021/06/10 07:10:33;;;;;;;12.05;10.85;;;20.00;99.90;;;;;;4995640;28;20046;-76
2021/06/10 07:12:59;;;;;;;12.25;11.05;;;20.00;99.90;;;;;;4997387;28;20034;-75
2021/06/10 07:15:29;;;;;;;11.77;10.57;;;20.10;99.90;;;;;;4989803;28;20176;-76
2021/06/10 07:17:55;;;;;;;11.82;10.63;;;20.10;99.90;;;;;;4982798;28;20031;-76
2021/06/10 07:20:21;;;;;;;12.40;11.18;;;20.20;99.90;;;;;;4992396;28;20165;-76
2021/06/10 07:22:49;;;;;;;12.35;11.07;;;20.30;99.90;;;;;;4996220;28;20103;-76
2021/06/10 07:25:15;;;;;;;12.07;10.88;;;20.30;99.90;;;;;;4996228;28;20088;-76
2021/06/10 07:27:41;;;;;;;11.48;10.32;;;20.40;99.90;;;;;;4979505;28;20041;-76
2021/06/10 07:30:11;;;;;;;12.57;11.38;;;20.50;99.90;;;;;;4990743;28;20108;-76
2021/06/10 07:32:37;;;;;;;13.45;11.00;;;20.50;99.90;;;;;;4988377;28;20040;-76
2021/06/10 07:35:03;;;;;;;12.10;11.00;;;20.70;99.90;;;;;;4988662;28;20030;-76
2021/06/10 07:37:31;;;;;;;11.65;10.50;;;20.80;99.90;;;;;;4997723;28;20054;-77
2021/06/10 07:39:57;;;;;;;12.40;10.88;;;20.90;99.90;;;;;;4988627;28;20034;-76
2021/06/10 07:42:22;;;;;;;11.63;10.43;;;21.10;99.90;;;;;;4992544;28;20452;-76
2021/06/10 07:44:48;;;;;;;11.73;10.57;;;21.40;99.90;;;;;;4990570;28;20627;-76
2021/06/10 07:47:21;;;;;;;12.30;11.07;;;21.50;99.90;;;;;;4990008;28;20107;-76
2021/06/10 07:49:49;;;;;;;12.70;11.50;;;21.70;99.90;;;;;;4988267;28;20019;-76
2021/06/10 07:52:16;;;;;;;11.80;10.60;;;22.00;99.90;;;;;;4988309;28;20069;-76
2021/06/10 07:54:42;;;;;;;12.65;11.43;;;22.20;99.90;;;;;;4990377;28;20034;-75
2021/06/10 07:57:10;;;;;;;13.05;11.60;;;22.30;99.90;;;;;;4989116;28;20032;-76
2021/06/10 07:59:39;;;;;;;13.05;11.57;;;22.60;99.90;;;;;;4990818;28;20069;-76
2021/06/10 08:02:04;;;;;;;13.88;12.48;;;22.70;99.90;;;;;;4991802;28;20126;-77
2021/06/10 08:04:32;;;;;;;12.43;11.23;;;22.90;99.90;;;;;;4997709;28;20716;-77
2021/06/10 08:06:58;;;;;;;12.82;11.52;;;23.10;99.90;;;;;;5005482;28;20440;-80
2021/06/10 08:09:24;;;;;;;13.75;12.35;;;23.30;99.90;;;;;;4986139;28;20049;-79
2021/06/10 08:11:53;;;;;;;15.32;13.80;;;23.50;99.90;;;;;;4990367;28;20046;-80
2021/06/10 08:14:18;;;;;;;12.40;11.20;;;23.60;99.90;;;;;;4987024;28;20030;-80
2021/06/10 08:16:46;;;;;;;12.07;10.75;;;23.80;99.90;;;;;;4994964;28;20034;-82
2021/06/10 08:19:14;;;;;;;13.13;11.80;;;23.90;99.90;;;;;;4988598;28;20130;-79
2021/06/10 08:21:40;;;;;;;26.88;24.20;;;24.10;99.90;;;;;;4987331;28;20072;-79
2021/06/10 08:24:06;;;;;;;17.38;15.77;;;24.20;99.90;;;;;;4989216;28;20046;-76
2021/06/10 08:26:34;;;;;;;14.60;13.20;;;24.30;99.90;;;;;;4989142;28;20023;-76
2021/06/10 08:28:59;;;;;;;17.90;13.00;;;24.40;99.90;;;;;;4987022;28;20050;-74
2021/06/10 08:31:25;;;;;;;13.00;11.57;;;24.50;99.90;;;;;;4986366;28;20136;-74
2021/06/10 08:33:56;;;;;;;13.45;12.15;;;24.70;99.90;;;;;;5007103;28;20057;-75
2021/06/10 08:36:23;;;;;;;15.05;13.32;;;24.80;99.90;;;;;;4987085;28;20411;-74
2021/06/10 08:38:51;;;;;;;13.25;11.57;;;24.80;99.90;;;;;;4992684;28;20052;-74
2021/06/10 08:41:17;;;;;;;11.95;10.75;;;24.90;99.90;;;;;;4965983;28;20021;-74
2021/06/10 08:43:45;;;;;;;13.88;12.48;;;25.00;99.90;;;;;;4985830;28;20033;-74
2021/06/10 08:46:12;;;;;;;13.90;12.50;;;25.10;99.90;;;;;;4963124;28;20034;-74
2021/06/10 08:48:40;;;;;;;13.10;11.75;;;25.20;99.90;;;;;;4965069;28;20123;-74
2021/06/10 08:51:07;;;;;;;14.57;13.07;;;25.40;99.90;;;;;;4988328;28;20481;-74
2021/06/10 08:53:33;;;;;;;15.30;12.30;;;25.40;99.90;;;;;;4983856;28;20095;-76
2021/06/10 08:55:59;;;;;;;15.07;13.68;;;25.50;99.30;;;;;;4979001;28;20488;-76
2021/06/10 08:58:30;;;;;;;13.93;12.45;;;25.70;99.90;;;;;;4996864;28;20379;-76
2021/06/10 09:01:01;;;;;;;13.32;12.00;;;25.80;99.90;;;;;;4988024;28;20035;-76
2021/06/10 09:03:29;;;;;;;15.43;13.82;;;26.00;99.90;;;;;;4971194;28;20046;-76
2021/06/10 09:06:16;;;;;;;14.23;12.60;;;25.90;99.90;;;;;;4989970;28;20271;-76
2021/06/10 09:08:42;;;;;;;16.05;14.48;;;25.80;96.80;;;;;;4963719;28;20088;-76
2021/06/10 09:11:12;;;;;;;14.10;12.63;;;25.70;94.30;;;;;;4989676;28;20105;-76
2021/06/10 09:13:51;;;;;;;12.82;11.43;;;25.70;97.60;;;;;;4987347;28;20064;-77
2021/06/10 09:16:16;;;;;;;13.30;11.90;;;25.80;99.90;;;;;;4987744;28;20652;-76
2021/06/10 09:18:52;;;;;;;14.00;12.52;;;25.80;99.90;;;;;;4986004;28;20046;-76
2021/06/10 09:21:28;;;;;;;13.70;12.40;;;25.70;99.90;;;;;;4986788;28;20040;-76
2021/06/10 09:23:57;;;;;;;13.60;12.40;;;25.70;99.90;;;;;;4996144;28;20068;-76
2021/06/10 09:26:23;;;;;;;13.50;12.25;;;25.70;99.90;;;;;;4989275;28;20030;-76
2021/06/10 09:29:02;;;;;;;15.82;14.40;;;25.60;98.10;;;;;;4978364;28;20041;-75
2021/06/10 09:31:34;;;;;;;11.38;10.02;;;25.20;95.50;;;;;;4985311;28;20038;-75
2021/06/10 09:34:06;;;;;;;11.43;10.32;;;25.20;99.90;;;;;;4980840;28;20068;-75
2021/06/10 09:36:44;;;;;;;10.98;9.88;;;25.00;99.90;;;;;;4985258;28;20396;-79
2021/06/10 09:39:14;;;;;;;18.15;16.45;;;24.90;99.90;;;;;;4986577;28;20589;-79
2021/06/10 09:41:59;;;;;;;12.48;11.18;;;24.80;99.90;;;;;;4996631;28;20042;-75
2021/06/10 09:44:37;;;;;;;12.07;10.95;;;24.80;99.90;;;;;;4996110;28;20121;-75
2021/06/10 09:47:05;;;;;;;12.00;10.88;;;24.60;99.90;;;;;;4979585;28;20049;-75
2021/06/10 09:49:33;;;;;;;12.27;10.93;;;24.40;99.90;;;;;;4978849;28;20041;-75
2021/06/10 09:52:00;;;;;;;11.80;10.60;;;24.40;99.90;;;;;;4988071;28;20037;-79
2021/06/10 09:54:52;;;;;;;11.93;10.82;;;24.30;99.90;;;;;;4993555;28;20045;-73
2021/06/10 09:57:18;;;;;;;12.05;10.95;;;24.30;99.90;;;;;;4981147;28;20092;-73
2021/06/10 09:59:54;;;;;;;12.20;11.10;;;24.10;99.90;;;;;;4993980;28;20034;-75
2021/06/10 10:02:30;;;;;;;11.50;10.40;;;24.10;99.90;;;;;;4979049;28;20052;-75
2021/06/10 10:05:09;;;;;;;11.05;9.95;;;24.10;99.90;;;;;;4991637;28;20026;-76
2021/06/10 10:07:36;;;;;;;11.00;9.90;;;24.00;99.90;;;;;;5004131;28;20200;-75
2021/06/10 10:10:03;;;;;;;12.25;10.93;;;24.00;99.90;;;;;;4984896;28;20030;-75
2021/06/10 10:12:32;;;;;;;14.93;13.43;;;24.10;99.90;;;;;;4982697;28;20038;-75
2021/06/10 10:15:01;;;;;;;14.40;12.95;;;24.10;99.90;;;;;;4985277;28;20103;-75
2021/06/10 10:17:31;;;;;;;14.60;13.20;;;24.10;99.90;;;;;;4986991;28;20064;-75
2021/06/10 10:19:57;;;;;;;14.43;13.13;;;24.10;99.90;;;;;;4986318;28;20030;-76
2021/06/10 10:22:28;;;;;;;13.27;12.00;;;24.10;99.90;;;;;;4984372;28;20030;-75
2021/06/10 10:24:56;;;;;;;13.88;12.48;;;24.10;99.90;;;;;;4981177;28;20511;-75
2021/06/10 10:27:24;;;;;;;15.93;14.32;;;24.10;99.90;;;;;;4980066;28;20034;-76
2021/06/10 10:29:52;;;;;;;16.52;14.93;;;24.10;99.90;;;;;;4989800;28;20356;-75
2021/06/10 10:32:26;;;;;;;14.88;13.50;;;24.10;99.90;;;;;;4980364;28;20038;-75
2021/06/10 10:34:54;;;;;;;14.68;13.23;;;24.30;99.90;;;;;;4983551;28;20022;-76
2021/06/10 10:37:29;;;;;;;15.73;14.32;;;24.30;99.90;;;;;;4997963;28;20050;-76
2021/06/10 10:39:55;;;;;;;14.70;13.23;;;24.40;99.90;;;;;;4983924;28;20027;-76
2021/06/10 10:42:36;;;;;;;14.02;12.60;;;24.40;99.90;;;;;;4997875;28;20045;-75
2021/06/10 10:45:19;;;;;;;15.00;13.40;;;24.40;99.90;;;;;;4985923;28;20113;-75
2021/06/10 10:48:00;;;;;;;16.88;15.18;;;24.40;99.90;;;;;;4998743;28;20638;-75
2021/06/10 10:50:32;;;;;;;15.67;14.13;;;24.30;99.90;;;;;;4992936;28;20030;-76
2021/06/10 10:53:00;;;;;;;14.45;12.82;;;24.20;99.90;;;;;;4990625;28;20054;-76
2021/06/10 10:55:29;;;;;;;13.60;12.35;;;24.30;99.90;;;;;;4991621;28;20065;-75
2021/06/10 10:58:05;;;;;;;13.65;12.35;;;24.20;99.90;;;;;;4996643;28;20113;-76
2021/06/10 11:01:10;;;;;;;11.70;10.60;;;24.30;99.90;;;;;;4980936;28;20043;-76
2021/06/10 11:03:45;;;;;;;12.73;11.43;;;24.30;99.90;;;;;;4951946;28;20038;-81
2021/06/10 11:06:26;;;;;;;87.22;16.33;;;24.30;99.90;;;;;;4991506;28;20042;-82
2021/06/10 11:09:13;;;;;;;17.63;12.25;;;24.30;99.90;;;;;;4992926;28;20033;-75
2021/06/10 11:11:54;;;;;;;13.27;12.07;;;24.30;99.90;;;;;;4997593;28;20041;-76
2021/06/10 11:14:40;;;;;;;14.63;13.23;;;24.40;99.90;;;;;;4978117;28;20388;-75
2021/06/10 11:17:12;;;;;;;16.55;14.90;;;24.60;99.90;;;;;;4995938;28;20044;-75
2021/06/10 11:19:53;;;;;;;;;;;24.80;99.90;;;;;;4994757;28;20030;-76
2021/06/10 11:22:39;;;;;;;16.23;14.63;;;24.80;99.90;;;;;;4992119;28;19921;-76
2021/06/10 11:25:10;;;;;;;18.05;15.80;;;25.10;99.90;;;;;;4983093;28;20515;-76
2021/06/10 11:27:44;;;;;;;16.60;15.10;;;25.30;99.90;;;;;;4998596;28;20025;-76
2021/06/10 11:30:23;;;;;;;17.67;16.00;;;25.50;97.80;;;;;;4991042;28;20022;-77
2021/06/10 11:33:11;;;;;;;17.42;15.73;;;25.70;96.80;;;;;;4991896;28;20372;-76
2021/06/10 11:35:39;;;;;;;14.60;13.25;;;25.90;99.00;;;;;;4994063;28;20037;-76
2021/06/10 11:38:23;;;;;;;16.60;14.93;;;26.10;99.90;;;;;;4992068;28;20026;-76
2021/06/10 11:41:12;;;;;;;16.45;14.85;;;26.20;98.60;;;;;;4994035;28;20482;-76
2021/06/10 11:43:43;;;;;;;16.30;14.80;;;26.60;99.90;;;;;;4991930;28;20042;-77
2021/06/10 11:46:12;;;;;;;14.20;12.82;;;26.70;96.30;;;;;;4970660;28;20380;-76
2021/06/10 11:48:42;;;;;;;14.27;12.88;;;26.70;99.70;;;;;;4997718;28;20041;-76
2021/06/10 11:51:23;;;;;;;14.45;13.05;;;26.60;94.90;;;;;;4998608;28;20463;-76
2021/06/10 11:53:52;;;;;;;15.07;13.60;;;26.50;90.20;;;;;;4984756;28;20096;-76
2021/06/10 11:56:29;;;;;;;12.25;11.18;;;26.30;91.60;;;;;;4995617;28;20104;-76
2021/06/10 11:58:58;;;;;;;11.45;10.35;;;26.20;98.30;;;;;;5007917;28;20741;-75
2021/06/10 12:01:24;;;;;;;12.30;11.20;;;26.10;96.30;;;;;;4998380;28;20038;-75
2021/06/10 12:03:53;;;;;;;12.30;11.20;;;26.20;98.50;;;;;;4998257;28;20043;-76
2021/06/10 12:06:22;;;;;;;16.75;15.15;;;26.20;95.40;;;;;;4995495;28;20057;-76
2021/06/10 12:08:48;;;;;;;14.55;13.18;;;26.20;88.50;;;;;;4994972;28;20025;-76
2021/06/10 12:11:20;;;;;;;14.07;12.68;;;26.30;97.20;;;;;;4988935;28;20480;-76
2021/06/10 12:13:55;;;;;;;15.20;13.77;;;26.50;92.50;;;;;;4988826;28;20041;-76
2021/06/10 12:16:22;;;;;;;14.70;13.40;;;26.40;90.30;;;;;;4979309;28;20033;-77
2021/06/10 12:18:52;;;;;;;16.02;14.52;;;26.60;88.80;;;;;;4989937;28;20058;-77
2021/06/10 12:21:19;;;;;;;14.07;12.77;;;26.60;89.00;;;;;;4989967;28;20045;-77
2021/06/10 12:23:51;;;;;;;12.98;11.88;;;26.80;89.10;;;;;;4990693;28;20036;-77
2021/06/10 12:26:20;;;;;;;12.05;10.90;;;27.00;86.60;;;;;;4988521;28;20079;-77
2021/06/10 12:28:47;;;;;;;12.93;11.52;;;27.20;93.10;;;;;;4994149;28;20022;-76
2021/06/10 12:31:13;;;;;;;11.23;10.13;;;27.20;68.40;;;;;;4995970;28;20044;-76
2021/06/10 12:33:45;;;;;;;10.80;9.80;;;27.20;77.80;;;;;;4989057;28;20097;-77
2021/06/10 12:36:24;;;;;;;;;;;27.30;83.20;;;;;;4991752;28;20019;-77
2021/06/10 12:38:54;;;;;;;10.40;9.40;;;27.30;69.90;;;;;;4993997;28;19975;-76
2021/06/10 12:41:26;;;;;;;10.93;9.90;;;27.30;72.50;;;;;;4998124;28;20030;-76